sensor_id;sensor_type;location;lat;lon;timestamp;P1;durP1;ratioP1;P2;durP2;ratioP2
55647;SDS011;45266;48.756;9.246;2023-04-24T00:00:05;1.40;;;1.05;;
55647;SDS011;45266;48.756;9.246;2023-04-24T00:01:10;1.88;;;1.17;;
55647;SDS011;45266;48.756;9.246;2023-04-24T00:02:14;2.53;;;1.20;;
55647;SDS011;45266;48.756;9.246;2023-04-24T00:03:28;1.85;;;0.98;;
55647;SDS011;45266;48.756;9.246;2023-04-24T00:04:31;1.40;;;1.10;;
55647;SDS011;45266;48.756;9.246;2023-04-24T00:05:33;3.05;;;1.20;;
55647;SDS011;45266;48.756;9.246;2023-04-24T00:06:35;1.80;;;1.33;;
55647;SDS011;45266;48.756;9.246;2023-04-24T00:07:38;4.60;;;1.30;;
55647;SDS011;45266;48.756;9.246;2023-04-24T00:08:39;2.03;;;1.40;;
55647;SDS011;45266;48.756;9.246;2023-04-24T00:09:41;3.72;;;1.25;;
55647;SDS011;45266;48.756;9.246;2023-04-24T00:10:44;1.25;;;0.90;;
55647;SDS011;45266;48.756;9.246;2023-04-24T00:11:46;1.95;;;1.20;;
55647;SDS011;45266;48.756;9.246;2023-04-24T00:12:48;2.60;;;1.30;;
55647;SDS011;45266;48.756;9.246;2023-04-24T00:13:50;1.10;;;1.00;;
55647;SDS011;45266;48.756;9.246;2023-04-24T00:14:51;1.75;;;1.10;;
55647;SDS011;45266;48.756;9.246;2023-04-24T00:15:54;1.80;;;1.20;;
55647;SDS011;45266;48.756;9.246;2023-04-24T00:16:56;1.93;;;1.13;;
55647;SDS011;45266;48.756;9.246;2023-04-24T00:17:58;2.77;;;1.20;;
55647;SDS011;45266;48.756;9.246;2023-04-24T00:19:02;1.83;;;1.03;;
55647;SDS011;45266;48.756;9.246;2023-04-24T00:20:04;4.13;;;1.37;;
55647;SDS011;45266;48.756;9.246;2023-04-24T00:21:08;1.20;;;1.10;;
55647;SDS011;45266;48.756;9.246;2023-04-24T00:22:09;1.47;;;1.20;;
55647;SDS011;45266;48.756;9.246;2023-04-24T00:23:12;2.13;;;1.00;;
55647;SDS011;45266;48.756;9.246;2023-04-24T00:24:14;1.15;;;1.00;;
55647;SDS011;45266;48.756;9.246;2023-04-24T00:25:15;1.17;;;1.03;;
55647;SDS011;45266;48.756;9.246;2023-04-24T00:26:17;2.13;;;1.03;;
55647;SDS011;45266;48.756;9.246;2023-04-24T00:27:19;1.67;;;1.00;;
55647;SDS011;45266;48.756;9.246;2023-04-24T00:28:21;1.42;;;1.08;;
55647;SDS011;45266;48.756;9.246;2023-04-24T00:29:23;1.27;;;0.98;;
55647;SDS011;45266;48.756;9.246;2023-04-24T00:30:24;1.92;;;1.10;;
55647;SDS011;45266;48.756;9.246;2023-04-24T00:31:26;2.57;;;0.90;;
55647;SDS011;45266;48.756;9.246;2023-04-24T00:32:28;2.58;;;1.23;;
55647;SDS011;45266;48.756;9.246;2023-04-24T00:33:30;0.90;;;0.87;;
55647;SDS011;45266;48.756;9.246;2023-04-24T00:34:31;1.37;;;1.20;;
55647;SDS011;45266;48.756;9.246;2023-04-24T00:35:33;1.27;;;1.17;;
55647;SDS011;45266;48.756;9.246;2023-04-24T00:36:35;1.37;;;1.07;;
55647;SDS011;45266;48.756;9.246;2023-04-24T00:37:37;1.20;;;1.10;;
55647;SDS011;45266;48.756;9.246;2023-04-24T00:38:39;1.60;;;1.27;;
55647;SDS011;45266;48.756;9.246;2023-04-24T00:39:41;2.65;;;1.05;;
55647;SDS011;45266;48.756;9.246;2023-04-24T00:40:44;2.43;;;1.17;;
55647;SDS011;45266;48.756;9.246;2023-04-24T00:41:46;2.03;;;1.17;;
55647;SDS011;45266;48.756;9.246;2023-04-24T00:42:49;1.73;;;1.05;;
55647;SDS011;45266;48.756;9.246;2023-04-24T00:43:51;2.85;;;1.20;;
55647;SDS011;45266;48.756;9.246;2023-04-24T00:44:54;3.10;;;0.93;;
55647;SDS011;45266;48.756;9.246;2023-04-24T00:45:56;2.53;;;0.95;;
55647;SDS011;45266;48.756;9.246;2023-04-24T00:46:58;2.87;;;1.10;;
55647;SDS011;45266;48.756;9.246;2023-04-24T00:48:01;1.73;;;1.30;;
55647;SDS011;45266;48.756;9.246;2023-04-24T00:49:04;1.77;;;1.10;;
55647;SDS011;45266;48.756;9.246;2023-04-24T00:50:07;3.30;;;1.10;;
55647;SDS011;45266;48.756;9.246;2023-04-24T00:51:09;2.10;;;1.00;;
55647;SDS011;45266;48.756;9.246;2023-04-24T00:52:11;1.83;;;1.10;;
55647;SDS011;45266;48.756;9.246;2023-04-24T00:53:13;2.22;;;1.20;;
55647;SDS011;45266;48.756;9.246;2023-04-24T00:54:15;1.97;;;1.00;;
55647;SDS011;45266;48.756;9.246;2023-04-24T00:55:17;3.95;;;1.52;;
55647;SDS011;45266;48.756;9.246;2023-04-24T00:56:19;1.13;;;1.02;;
55647;SDS011;45266;48.756;9.246;2023-04-24T00:57:21;1.60;;;1.02;;
55647;SDS011;45266;48.756;9.246;2023-04-24T00:58:24;0.93;;;0.90;;
55647;SDS011;45266;48.756;9.246;2023-04-24T00:59:27;1.40;;;0.90;;
55647;SDS011;45266;48.756;9.246;2023-04-24T01:00:29;1.52;;;1.17;;
55647;SDS011;45266;48.756;9.246;2023-04-24T01:01:32;1.10;;;1.00;;
55647;SDS011;45266;48.756;9.246;2023-04-24T01:02:34;1.00;;;0.90;;
55647;SDS011;45266;48.756;9.246;2023-04-24T01:03:36;2.23;;;1.00;;
55647;SDS011;45266;48.756;9.246;2023-04-24T01:04:39;3.30;;;1.20;;
55647;SDS011;45266;48.756;9.246;2023-04-24T01:05:41;2.00;;;1.03;;
55647;SDS011;45266;48.756;9.246;2023-04-24T01:06:43;2.85;;;1.20;;
55647;SDS011;45266;48.756;9.246;2023-04-24T01:07:47;3.00;;;1.93;;
55647;SDS011;45266;48.756;9.246;2023-04-24T01:08:50;2.40;;;1.20;;
55647;SDS011;45266;48.756;9.246;2023-04-24T01:09:52;2.30;;;0.90;;
55647;SDS011;45266;48.756;9.246;2023-04-24T01:10:54;2.03;;;1.10;;
55647;SDS011;45266;48.756;9.246;2023-04-24T01:11:58;3.40;;;0.93;;
55647;SDS011;45266;48.756;9.246;2023-04-24T01:12:59;1.57;;;0.80;;
55647;SDS011;45266;48.756;9.246;2023-04-24T01:14:01;1.92;;;1.00;;
55647;SDS011;45266;48.756;9.246;2023-04-24T01:15:03;3.13;;;1.00;;
55647;SDS011;45266;48.756;9.246;2023-04-24T01:16:06;2.70;;;1.20;;
55647;SDS011;45266;48.756;9.246;2023-04-24T01:17:08;1.30;;;1.00;;
55647;SDS011;45266;48.756;9.246;2023-04-24T01:18:10;1.87;;;1.10;;
55647;SDS011;45266;48.756;9.246;2023-04-24T01:19:21;3.33;;;0.97;;
55647;SDS011;45266;48.756;9.246;2023-04-24T01:20:23;3.05;;;0.90;;
55647;SDS011;45266;48.756;9.246;2023-04-24T01:21:27;1.20;;;0.95;;
55647;SDS011;45266;48.756;9.246;2023-04-24T01:22:32;2.70;;;1.10;;
55647;SDS011;45266;48.756;9.246;2023-04-24T01:23:51;2.93;;;0.93;;
55647;SDS011;45266;48.756;9.246;2023-04-24T01:24:53;2.07;;;0.83;;
55647;SDS011;45266;48.756;9.246;2023-04-24T01:25:55;1.93;;;0.80;;
55647;SDS011;45266;48.756;9.246;2023-04-24T01:26:57;1.70;;;0.97;;
55647;SDS011;45266;48.756;9.246;2023-04-24T01:27:59;2.23;;;1.20;;
55647;SDS011;45266;48.756;9.246;2023-04-24T01:29:01;1.10;;;1.00;;
55647;SDS011;45266;48.756;9.246;2023-04-24T01:30:04;1.00;;;0.90;;
55647;SDS011;45266;48.756;9.246;2023-04-24T01:31:07;2.50;;;0.83;;
55647;SDS011;45266;48.756;9.246;2023-04-24T01:32:09;2.70;;;0.90;;
55647;SDS011;45266;48.756;9.246;2023-04-24T01:33:11;1.53;;;0.90;;
55647;SDS011;45266;48.756;9.246;2023-04-24T01:34:13;1.63;;;0.90;;
55647;SDS011;45266;48.756;9.246;2023-04-24T01:35:15;1.77;;;0.80;;
55647;SDS011;45266;48.756;9.246;2023-04-24T01:36:17;1.98;;;0.90;;
55647;SDS011;45266;48.756;9.246;2023-04-24T01:37:20;3.42;;;1.10;;
55647;SDS011;45266;48.756;9.246;2023-04-24T01:38:21;2.17;;;1.10;;
55647;SDS011;45266;48.756;9.246;2023-04-24T01:39:23;1.57;;;0.90;;
55647;SDS011;45266;48.756;9.246;2023-04-24T01:40:27;1.73;;;1.05;;
55647;SDS011;45266;48.756;9.246;2023-04-24T01:41:29;2.63;;;1.30;;
55647;SDS011;45266;48.756;9.246;2023-04-24T01:42:31;1.50;;;1.05;;
55647;SDS011;45266;48.756;9.246;2023-04-24T01:43:33;1.30;;;0.80;;
55647;SDS011;45266;48.756;9.246;2023-04-24T01:44:35;1.90;;;1.00;;
55647;SDS011;45266;48.756;9.246;2023-04-24T01:45:37;2.47;;;1.03;;
55647;SDS011;45266;48.756;9.246;2023-04-24T01:46:38;1.50;;;1.03;;
55647;SDS011;45266;48.756;9.246;2023-04-24T01:47:40;3.60;;;1.02;;
55647;SDS011;45266;48.756;9.246;2023-04-24T01:48:44;2.27;;;1.03;;
55647;SDS011;45266;48.756;9.246;2023-04-24T01:49:46;1.92;;;0.90;;
55647;SDS011;45266;48.756;9.246;2023-04-24T01:50:49;2.33;;;1.20;;
55647;SDS011;45266;48.756;9.246;2023-04-24T01:51:51;4.00;;;1.10;;
55647;SDS011;45266;48.756;9.246;2023-04-24T01:52:53;2.17;;;1.00;;
55647;SDS011;45266;48.756;9.246;2023-04-24T01:53:54;0.80;;;0.80;;
55647;SDS011;45266;48.756;9.246;2023-04-24T01:54:59;3.95;;;1.10;;
55647;SDS011;45266;48.756;9.246;2023-04-24T01:56:01;3.58;;;1.02;;
55647;SDS011;45266;48.756;9.246;2023-04-24T01:57:04;3.15;;;1.00;;
55647;SDS011;45266;48.756;9.246;2023-04-24T01:58:06;1.52;;;1.00;;
55647;SDS011;45266;48.756;9.246;2023-04-24T01:59:09;1.53;;;0.83;;
55647;SDS011;45266;48.756;9.246;2023-04-24T02:00:13;2.43;;;1.20;;
55647;SDS011;45266;48.756;9.246;2023-04-24T02:01:23;1.80;;;0.90;;
55647;SDS011;45266;48.756;9.246;2023-04-24T02:02:26;1.88;;;0.85;;
55647;SDS011;45266;48.756;9.246;2023-04-24T02:03:31;2.03;;;1.13;;
55647;SDS011;45266;48.756;9.246;2023-04-24T02:04:33;2.78;;;1.25;;
55647;SDS011;45266;48.756;9.246;2023-04-24T02:05:35;3.30;;;1.10;;
55647;SDS011;45266;48.756;9.246;2023-04-24T02:06:36;2.25;;;1.13;;
55647;SDS011;45266;48.756;9.246;2023-04-24T02:07:38;1.97;;;0.90;;
55647;SDS011;45266;48.756;9.246;2023-04-24T02:08:41;2.65;;;1.10;;
55647;SDS011;45266;48.756;9.246;2023-04-24T02:09:43;2.43;;;0.90;;
55647;SDS011;45266;48.756;9.246;2023-04-24T02:10:45;0.80;;;0.80;;
55647;SDS011;45266;48.756;9.246;2023-04-24T02:11:46;1.98;;;0.93;;
55647;SDS011;45266;48.756;9.246;2023-04-24T02:12:48;2.50;;;0.97;;
55647;SDS011;45266;48.756;9.246;2023-04-24T02:13:50;1.00;;;0.90;;
55647;SDS011;45266;48.756;9.246;2023-04-24T02:14:52;1.37;;;1.10;;
55647;SDS011;45266;48.756;9.246;2023-04-24T02:15:54;3.33;;;1.20;;
55647;SDS011;45266;48.756;9.246;2023-04-24T02:16:56;5.57;;;1.40;;
55647;SDS011;45266;48.756;9.246;2023-04-24T02:17:58;3.20;;;0.80;;
55647;SDS011;45266;48.756;9.246;2023-04-24T02:18:59;1.40;;;0.87;;
55647;SDS011;45266;48.756;9.246;2023-04-24T02:20:01;2.88;;;0.95;;
55647;SDS011;45266;48.756;9.246;2023-04-24T02:21:03;2.28;;;1.10;;
55647;SDS011;45266;48.756;9.246;2023-04-24T02:22:05;3.03;;;1.15;;
55647;SDS011;45266;48.756;9.246;2023-04-24T02:23:07;1.43;;;1.00;;
55647;SDS011;45266;48.756;9.246;2023-04-24T02:24:09;2.67;;;1.00;;
55647;SDS011;45266;48.756;9.246;2023-04-24T02:25:11;1.05;;;0.95;;
55647;SDS011;45266;48.756;9.246;2023-04-24T02:26:13;2.30;;;1.10;;
55647;SDS011;45266;48.756;9.246;2023-04-24T02:27:15;1.00;;;1.00;;
55647;SDS011;45266;48.756;9.246;2023-04-24T02:28:16;2.77;;;0.97;;
55647;SDS011;45266;48.756;9.246;2023-04-24T02:29:18;3.37;;;1.03;;
55647;SDS011;45266;48.756;9.246;2023-04-24T02:30:21;2.93;;;1.10;;
55647;SDS011;45266;48.756;9.246;2023-04-24T02:31:23;2.95;;;1.00;;
55647;SDS011;45266;48.756;9.246;2023-04-24T02:32:24;1.60;;;1.00;;
55647;SDS011;45266;48.756;9.246;2023-04-24T02:33:26;2.35;;;1.20;;
55647;SDS011;45266;48.756;9.246;2023-04-24T02:34:28;2.10;;;1.10;;
55647;SDS011;45266;48.756;9.246;2023-04-24T02:35:30;1.90;;;1.10;;
55647;SDS011;45266;48.756;9.246;2023-04-24T02:36:32;1.60;;;1.17;;
55647;SDS011;45266;48.756;9.246;2023-04-24T02:37:33;3.20;;;1.10;;
55647;SDS011;45266;48.756;9.246;2023-04-24T02:38:35;1.40;;;0.90;;
55647;SDS011;45266;48.756;9.246;2023-04-24T02:39:37;2.23;;;1.10;;
55647;SDS011;45266;48.756;9.246;2023-04-24T02:40:39;2.00;;;0.93;;
55647;SDS011;45266;48.756;9.246;2023-04-24T02:41:41;1.47;;;1.00;;
55647;SDS011;45266;48.756;9.246;2023-04-24T02:42:42;2.07;;;1.07;;
55647;SDS011;45266;48.756;9.246;2023-04-24T02:43:44;3.25;;;0.90;;
55647;SDS011;45266;48.756;9.246;2023-04-24T02:44:46;2.00;;;1.00;;
55647;SDS011;45266;48.756;9.246;2023-04-24T02:45:48;2.97;;;1.13;;
55647;SDS011;45266;48.756;9.246;2023-04-24T02:46:50;1.87;;;1.03;;
55647;SDS011;45266;48.756;9.246;2023-04-24T02:47:52;2.23;;;0.90;;
55647;SDS011;45266;48.756;9.246;2023-04-24T02:48:53;3.07;;;1.20;;
55647;SDS011;45266;48.756;9.246;2023-04-24T02:49:55;1.27;;;1.00;;
55647;SDS011;45266;48.756;9.246;2023-04-24T02:50:57;2.88;;;1.27;;
55647;SDS011;45266;48.756;9.246;2023-04-24T02:51:59;2.23;;;1.00;;
55647;SDS011;45266;48.756;9.246;2023-04-24T02:53:01;3.63;;;1.37;;
55647;SDS011;45266;48.756;9.246;2023-04-24T02:54:02;3.17;;;1.27;;
55647;SDS011;45266;48.756;9.246;2023-04-24T02:55:04;2.57;;;1.10;;
55647;SDS011;45266;48.756;9.246;2023-04-24T02:56:07;2.03;;;1.10;;
55647;SDS011;45266;48.756;9.246;2023-04-24T02:57:08;1.55;;;1.00;;
55647;SDS011;45266;48.756;9.246;2023-04-24T02:58:10;0.97;;;0.87;;
55647;SDS011;45266;48.756;9.246;2023-04-24T02:59:13;2.88;;;1.10;;
55647;SDS011;45266;48.756;9.246;2023-04-24T03:00:15;6.30;;;0.90;;
55647;SDS011;45266;48.756;9.246;2023-04-24T03:01:17;1.90;;;1.07;;
55647;SDS011;45266;48.756;9.246;2023-04-24T03:02:19;3.20;;;1.37;;
55647;SDS011;45266;48.756;9.246;2023-04-24T03:03:22;4.43;;;1.13;;
55647;SDS011;45266;48.756;9.246;2023-04-24T03:04:24;2.17;;;0.93;;
55647;SDS011;45266;48.756;9.246;2023-04-24T03:05:26;5.80;;;1.47;;
55647;SDS011;45266;48.756;9.246;2023-04-24T03:06:28;1.77;;;0.90;;
55647;SDS011;45266;48.756;9.246;2023-04-24T03:07:32;3.97;;;1.00;;
55647;SDS011;45266;48.756;9.246;2023-04-24T03:08:34;2.00;;;1.03;;
55647;SDS011;45266;48.756;9.246;2023-04-24T03:09:36;2.90;;;1.10;;
55647;SDS011;45266;48.756;9.246;2023-04-24T03:10:38;4.83;;;1.30;;
55647;SDS011;45266;48.756;9.246;2023-04-24T03:11:39;2.63;;;1.27;;
55647;SDS011;45266;48.756;9.246;2023-04-24T03:12:41;6.75;;;3.50;;
55647;SDS011;45266;48.756;9.246;2023-04-24T03:13:43;5.27;;;3.20;;
55647;SDS011;45266;48.756;9.246;2023-04-24T03:14:45;5.20;;;3.47;;
55647;SDS011;45266;48.756;9.246;2023-04-24T03:15:47;3.90;;;2.83;;
55647;SDS011;45266;48.756;9.246;2023-04-24T03:16:48;2.67;;;1.80;;
55647;SDS011;45266;48.756;9.246;2023-04-24T03:17:51;4.63;;;2.80;;
55647;SDS011;45266;48.756;9.246;2023-04-24T03:18:56;2.43;;;1.60;;
55647;SDS011;45266;48.756;9.246;2023-04-24T03:19:58;3.63;;;1.70;;
55647;SDS011;45266;48.756;9.246;2023-04-24T03:21:00;3.30;;;1.90;;
55647;SDS011;45266;48.756;9.246;2023-04-24T03:22:02;3.63;;;1.58;;
55647;SDS011;45266;48.756;9.246;2023-04-24T03:23:04;2.73;;;1.50;;
55647;SDS011;45266;48.756;9.246;2023-04-24T03:24:07;3.77;;;1.33;;
55647;SDS011;45266;48.756;9.246;2023-04-24T03:25:09;3.27;;;1.80;;
55647;SDS011;45266;48.756;9.246;2023-04-24T03:26:11;2.63;;;1.90;;
55647;SDS011;45266;48.756;9.246;2023-04-24T03:27:13;2.42;;;1.60;;
55647;SDS011;45266;48.756;9.246;2023-04-24T03:28:15;3.17;;;1.43;;
55647;SDS011;45266;48.756;9.246;2023-04-24T03:29:16;2.40;;;1.10;;
55647;SDS011;45266;48.756;9.246;2023-04-24T03:30:18;2.22;;;1.30;;
55647;SDS011;45266;48.756;9.246;2023-04-24T03:31:20;3.30;;;1.27;;
55647;SDS011;45266;48.756;9.246;2023-04-24T03:32:22;2.97;;;1.30;;
55647;SDS011;45266;48.756;9.246;2023-04-24T03:33:24;1.37;;;1.00;;
55647;SDS011;45266;48.756;9.246;2023-04-24T03:34:26;3.50;;;1.40;;
55647;SDS011;45266;48.756;9.246;2023-04-24T03:35:28;2.50;;;1.20;;
55647;SDS011;45266;48.756;9.246;2023-04-24T03:36:29;3.83;;;1.30;;
55647;SDS011;45266;48.756;9.246;2023-04-24T03:37:32;2.13;;;0.90;;
55647;SDS011;45266;48.756;9.246;2023-04-24T03:38:34;1.97;;;1.10;;
55647;SDS011;45266;48.756;9.246;2023-04-24T03:39:35;2.03;;;1.08;;
55647;SDS011;45266;48.756;9.246;2023-04-24T03:40:37;3.30;;;1.30;;
55647;SDS011;45266;48.756;9.246;2023-04-24T03:41:39;3.70;;;1.30;;
55647;SDS011;45266;48.756;9.246;2023-04-24T03:42:41;2.80;;;1.20;;
55647;SDS011;45266;48.756;9.246;2023-04-24T03:43:42;4.22;;;1.38;;
55647;SDS011;45266;48.756;9.246;2023-04-24T03:44:44;2.90;;;1.10;;
55647;SDS011;45266;48.756;9.246;2023-04-24T03:45:46;2.10;;;1.10;;
55647;SDS011;45266;48.756;9.246;2023-04-24T03:46:48;3.03;;;1.37;;
55647;SDS011;45266;48.756;9.246;2023-04-24T03:47:50;2.83;;;1.13;;
55647;SDS011;45266;48.756;9.246;2023-04-24T03:48:51;2.00;;;1.00;;
55647;SDS011;45266;48.756;9.246;2023-04-24T03:49:53;1.80;;;1.00;;
55647;SDS011;45266;48.756;9.246;2023-04-24T03:50:56;1.17;;;1.00;;
55647;SDS011;45266;48.756;9.246;2023-04-24T03:51:58;2.10;;;1.00;;
55647;SDS011;45266;48.756;9.246;2023-04-24T03:53:00;1.87;;;0.90;;
55647;SDS011;45266;48.756;9.246;2023-04-24T03:54:02;1.70;;;1.10;;
55647;SDS011;45266;48.756;9.246;2023-04-24T03:55:04;3.42;;;1.08;;
55647;SDS011;45266;48.756;9.246;2023-04-24T03:56:07;3.40;;;1.30;;
55647;SDS011;45266;48.756;9.246;2023-04-24T03:57:09;0.90;;;0.90;;
55647;SDS011;45266;48.756;9.246;2023-04-24T03:58:11;2.90;;;1.10;;
55647;SDS011;45266;48.756;9.246;2023-04-24T03:59:14;1.30;;;1.00;;
55647;SDS011;45266;48.756;9.246;2023-04-24T04:00:16;3.87;;;1.20;;
55647;SDS011;45266;48.756;9.246;2023-04-24T04:01:19;6.47;;;1.30;;
55647;SDS011;45266;48.756;9.246;2023-04-24T04:02:22;4.73;;;0.90;;
55647;SDS011;45266;48.756;9.246;2023-04-24T04:03:23;1.75;;;1.00;;
55647;SDS011;45266;48.756;9.246;2023-04-24T04:04:26;2.23;;;1.10;;
55647;SDS011;45266;48.756;9.246;2023-04-24T04:05:28;4.95;;;0.93;;
55647;SDS011;45266;48.756;9.246;2023-04-24T04:06:31;1.02;;;0.90;;
55647;SDS011;45266;48.756;9.246;2023-04-24T04:07:33;1.35;;;0.90;;
55647;SDS011;45266;48.756;9.246;2023-04-24T04:08:35;1.13;;;0.90;;
55647;SDS011;45266;48.756;9.246;2023-04-24T04:09:37;1.48;;;1.05;;
55647;SDS011;45266;48.756;9.246;2023-04-24T04:10:39;3.67;;;1.10;;
55647;SDS011;45266;48.756;9.246;2023-04-24T04:11:40;2.63;;;1.13;;
55647;SDS011;45266;48.756;9.246;2023-04-24T04:12:42;1.43;;;1.00;;
55647;SDS011;45266;48.756;9.246;2023-04-24T04:13:44;1.30;;;1.17;;
55647;SDS011;45266;48.756;9.246;2023-04-24T04:14:49;1.50;;;1.20;;
55647;SDS011;45266;48.756;9.246;2023-04-24T04:15:50;3.35;;;1.55;;
55647;SDS011;45266;48.756;9.246;2023-04-24T04:16:52;1.67;;;1.23;;
55647;SDS011;45266;48.756;9.246;2023-04-24T04:17:55;5.07;;;1.10;;
55647;SDS011;45266;48.756;9.246;2023-04-24T04:18:57;2.50;;;1.20;;
55647;SDS011;45266;48.756;9.246;2023-04-24T04:19:58;1.87;;;1.30;;
55647;SDS011;45266;48.756;9.246;2023-04-24T04:21:01;2.10;;;1.50;;
55647;SDS011;45266;48.756;9.246;2023-04-24T04:22:02;5.53;;;1.33;;
55647;SDS011;45266;48.756;9.246;2023-04-24T04:23:04;2.23;;;1.40;;
55647;SDS011;45266;48.756;9.246;2023-04-24T04:24:06;4.23;;;1.30;;
55647;SDS011;45266;48.756;9.246;2023-04-24T04:25:08;1.93;;;1.10;;
55647;SDS011;45266;48.756;9.246;2023-04-24T04:26:10;3.42;;;1.45;;
55647;SDS011;45266;48.756;9.246;2023-04-24T04:27:13;2.07;;;1.30;;
55647;SDS011;45266;48.756;9.246;2023-04-24T04:28:15;2.57;;;1.33;;
55647;SDS011;45266;48.756;9.246;2023-04-24T04:29:17;2.83;;;1.50;;
55647;SDS011;45266;48.756;9.246;2023-04-24T04:30:21;5.93;;;1.30;;
55647;SDS011;45266;48.756;9.246;2023-04-24T04:31:24;3.13;;;1.53;;
55647;SDS011;45266;48.756;9.246;2023-04-24T04:32:26;1.80;;;1.20;;
55647;SDS011;45266;48.756;9.246;2023-04-24T04:33:28;2.60;;;1.50;;
55647;SDS011;45266;48.756;9.246;2023-04-24T04:34:29;1.50;;;1.30;;
55647;SDS011;45266;48.756;9.246;2023-04-24T04:35:32;2.00;;;1.27;;
55647;SDS011;45266;48.756;9.246;2023-04-24T04:36:34;2.27;;;1.20;;
55647;SDS011;45266;48.756;9.246;2023-04-24T04:37:38;1.57;;;1.33;;
55647;SDS011;45266;48.756;9.246;2023-04-24T04:38:41;2.20;;;1.50;;
55647;SDS011;45266;48.756;9.246;2023-04-24T04:39:44;3.37;;;1.70;;
55647;SDS011;45266;48.756;9.246;2023-04-24T04:40:45;3.43;;;1.13;;
55647;SDS011;45266;48.756;9.246;2023-04-24T04:41:47;1.40;;;1.20;;
55647;SDS011;45266;48.756;9.246;2023-04-24T04:42:50;2.80;;;1.37;;
55647;SDS011;45266;48.756;9.246;2023-04-24T04:43:54;2.67;;;1.07;;
55647;SDS011;45266;48.756;9.246;2023-04-24T04:44:56;1.30;;;0.90;;
55647;SDS011;45266;48.756;9.246;2023-04-24T04:45:58;1.53;;;1.10;;
55647;SDS011;45266;48.756;9.246;2023-04-24T04:47:02;2.57;;;0.97;;
55647;SDS011;45266;48.756;9.246;2023-04-24T04:48:06;1.47;;;1.20;;
55647;SDS011;45266;48.756;9.246;2023-04-24T04:49:10;3.47;;;1.10;;
55647;SDS011;45266;48.756;9.246;2023-04-24T04:50:12;4.60;;;1.53;;
55647;SDS011;45266;48.756;9.246;2023-04-24T04:51:13;4.20;;;1.40;;
55647;SDS011;45266;48.756;9.246;2023-04-24T04:52:15;1.63;;;1.10;;
55647;SDS011;45266;48.756;9.246;2023-04-24T04:53:18;3.57;;;1.20;;
55647;SDS011;45266;48.756;9.246;2023-04-24T04:54:20;3.00;;;1.40;;
55647;SDS011;45266;48.756;9.246;2023-04-24T04:55:21;5.13;;;1.40;;
55647;SDS011;45266;48.756;9.246;2023-04-24T04:56:23;3.03;;;1.00;;
55647;SDS011;45266;48.756;9.246;2023-04-24T04:57:25;2.10;;;1.30;;
55647;SDS011;45266;48.756;9.246;2023-04-24T04:58:27;2.00;;;1.43;;
55647;SDS011;45266;48.756;9.246;2023-04-24T04:59:29;1.30;;;1.20;;
55647;SDS011;45266;48.756;9.246;2023-04-24T05:00:31;3.77;;;1.40;;
55647;SDS011;45266;48.756;9.246;2023-04-24T05:01:36;3.83;;;1.53;;
55647;SDS011;45266;48.756;9.246;2023-04-24T05:02:39;2.37;;;1.63;;
55647;SDS011;45266;48.756;9.246;2023-04-24T05:03:41;1.23;;;1.03;;
55647;SDS011;45266;48.756;9.246;2023-04-24T05:04:43;2.20;;;1.38;;
55647;SDS011;45266;48.756;9.246;2023-04-24T05:05:46;2.30;;;1.40;;
55647;SDS011;45266;48.756;9.246;2023-04-24T05:06:48;1.40;;;1.10;;
55647;SDS011;45266;48.756;9.246;2023-04-24T05:07:52;1.80;;;1.30;;
55647;SDS011;45266;48.756;9.246;2023-04-24T05:08:53;2.28;;;1.38;;
55647;SDS011;45266;48.756;9.246;2023-04-24T05:09:58;1.60;;;1.30;;
55647;SDS011;45266;48.756;9.246;2023-04-24T05:11:00;1.83;;;1.10;;
55647;SDS011;45266;48.756;9.246;2023-04-24T05:12:02;3.43;;;1.77;;
55647;SDS011;45266;48.756;9.246;2023-04-24T05:13:04;2.03;;;1.77;;
55647;SDS011;45266;48.756;9.246;2023-04-24T05:14:06;3.17;;;1.47;;
55647;SDS011;45266;48.756;9.246;2023-04-24T05:15:08;2.60;;;1.50;;
55647;SDS011;45266;48.756;9.246;2023-04-24T05:16:10;2.00;;;1.38;;
55647;SDS011;45266;48.756;9.246;2023-04-24T05:17:12;1.67;;;1.10;;
55647;SDS011;45266;48.756;9.246;2023-04-24T05:18:14;4.63;;;1.50;;
55647;SDS011;45266;48.756;9.246;2023-04-24T05:19:16;3.43;;;1.50;;
55647;SDS011;45266;48.756;9.246;2023-04-24T05:20:18;2.50;;;1.20;;
55647;SDS011;45266;48.756;9.246;2023-04-24T05:21:20;2.10;;;1.40;;
55647;SDS011;45266;48.756;9.246;2023-04-24T05:22:22;2.50;;;1.43;;
55647;SDS011;45266;48.756;9.246;2023-04-24T05:23:25;4.00;;;1.30;;
55647;SDS011;45266;48.756;9.246;2023-04-24T05:24:26;2.90;;;1.60;;
55647;SDS011;45266;48.756;9.246;2023-04-24T05:25:28;1.53;;;1.40;;
55647;SDS011;45266;48.756;9.246;2023-04-24T05:26:31;3.93;;;1.53;;
55647;SDS011;45266;48.756;9.246;2023-04-24T05:27:33;2.67;;;1.50;;
55647;SDS011;45266;48.756;9.246;2023-04-24T05:28:35;6.40;;;3.58;;
55647;SDS011;45266;48.756;9.246;2023-04-24T05:29:38;3.75;;;1.90;;
55647;SDS011;45266;48.756;9.246;2023-04-24T05:30:39;3.47;;;1.40;;
55647;SDS011;45266;48.756;9.246;2023-04-24T05:31:41;2.30;;;1.13;;
55647;SDS011;45266;48.756;9.246;2023-04-24T05:32:44;2.57;;;1.50;;
55647;SDS011;45266;48.756;9.246;2023-04-24T05:33:46;2.43;;;1.63;;
55647;SDS011;45266;48.756;9.246;2023-04-24T05:34:48;2.77;;;1.50;;
55647;SDS011;45266;48.756;9.246;2023-04-24T05:35:49;2.03;;;1.35;;
55647;SDS011;45266;48.756;9.246;2023-04-24T05:36:51;1.80;;;1.47;;
55647;SDS011;45266;48.756;9.246;2023-04-24T05:37:53;2.47;;;1.90;;
55647;SDS011;45266;48.756;9.246;2023-04-24T05:38:55;1.80;;;1.30;;
55647;SDS011;45266;48.756;9.246;2023-04-24T05:39:57;1.60;;;1.43;;
55647;SDS011;45266;48.756;9.246;2023-04-24T05:40:59;2.00;;;1.50;;
55647;SDS011;45266;48.756;9.246;2023-04-24T05:42:01;2.93;;;1.50;;
55647;SDS011;45266;48.756;9.246;2023-04-24T05:43:04;2.65;;;1.67;;
55647;SDS011;45266;48.756;9.246;2023-04-24T05:44:06;2.63;;;1.60;;
55647;SDS011;45266;48.756;9.246;2023-04-24T05:45:08;3.72;;;2.20;;
55647;SDS011;45266;48.756;9.246;2023-04-24T05:46:11;3.60;;;1.80;;
55647;SDS011;45266;48.756;9.246;2023-04-24T05:47:13;1.93;;;1.40;;
55647;SDS011;45266;48.756;9.246;2023-04-24T05:48:15;6.38;;;2.03;;
55647;SDS011;45266;48.756;9.246;2023-04-24T05:49:17;1.70;;;1.55;;
55647;SDS011;45266;48.756;9.246;2023-04-24T05:50:18;2.80;;;1.77;;
55647;SDS011;45266;48.756;9.246;2023-04-24T05:51:21;2.00;;;1.90;;
55647;SDS011;45266;48.756;9.246;2023-04-24T05:52:22;2.40;;;1.73;;
55647;SDS011;45266;48.756;9.246;2023-04-24T05:53:24;2.50;;;1.73;;
55647;SDS011;45266;48.756;9.246;2023-04-24T05:54:26;3.50;;;1.60;;
55647;SDS011;45266;48.756;9.246;2023-04-24T05:55:28;3.70;;;2.20;;
55647;SDS011;45266;48.756;9.246;2023-04-24T05:56:30;3.65;;;2.72;;
55647;SDS011;45266;48.756;9.246;2023-04-24T05:57:32;9.63;;;6.23;;
55647;SDS011;45266;48.756;9.246;2023-04-24T05:58:34;4.00;;;2.22;;
55647;SDS011;45266;48.756;9.246;2023-04-24T05:59:36;2.70;;;1.60;;
55647;SDS011;45266;48.756;9.246;2023-04-24T06:00:42;2.10;;;1.73;;
55647;SDS011;45266;48.756;9.246;2023-04-24T06:01:44;1.58;;;1.40;;
55647;SDS011;45266;48.756;9.246;2023-04-24T06:02:46;2.88;;;1.70;;
55647;SDS011;45266;48.756;9.246;2023-04-24T06:03:48;3.60;;;1.70;;
55647;SDS011;45266;48.756;9.246;2023-04-24T06:04:50;3.93;;;1.70;;
55647;SDS011;45266;48.756;9.246;2023-04-24T06:05:53;2.47;;;1.60;;
55647;SDS011;45266;48.756;9.246;2023-04-24T06:06:55;5.07;;;1.88;;
55647;SDS011;45266;48.756;9.246;2023-04-24T06:07:57;1.90;;;1.50;;
55647;SDS011;45266;48.756;9.246;2023-04-24T06:08:59;3.50;;;1.70;;
55647;SDS011;45266;48.756;9.246;2023-04-24T06:10:01;3.60;;;1.80;;
55647;SDS011;45266;48.756;9.246;2023-04-24T06:11:03;2.78;;;1.75;;
55647;SDS011;45266;48.756;9.246;2023-04-24T06:12:05;3.17;;;1.80;;
55647;SDS011;45266;48.756;9.246;2023-04-24T06:13:09;3.27;;;1.60;;
55647;SDS011;45266;48.756;9.246;2023-04-24T06:14:11;4.70;;;1.97;;
55647;SDS011;45266;48.756;9.246;2023-04-24T06:15:12;3.65;;;2.00;;